sensor_id;sensor_type;location;lat;lon;timestamp;P1;durP1;ratioP1;P2;durP2;ratioP2
19645;SDS011;9971;52.446;13.452;2023-07-29T00:04:53;4.65;;;4.35;;
19645;SDS011;9971;52.446;13.452;2023-07-29T00:09:56;5.35;;;4.85;;
19645;SDS011;9971;52.446;13.452;2023-07-29T00:14:58;6.87;;;5.47;;
19645;SDS011;9971;52.446;13.452;2023-07-29T00:20:00;5.20;;;4.80;;
19645;SDS011;9971;52.446;13.452;2023-07-29T00:25:03;5.53;;;5.12;;
19645;SDS011;9971;52.446;13.452;2023-07-29T00:30:06;5.15;;;4.75;;
19645;SDS011;9971;52.446;13.452;2023-07-29T00:35:09;5.35;;;4.85;;
19645;SDS011;9971;52.446;13.452;2023-07-29T00:40:18;5.73;;;5.33;;
19645;SDS011;9971;52.446;13.452;2023-07-29T00:45:18;5.70;;;4.97;;
19645;SDS011;9971;52.446;13.452;2023-07-29T00:50:21;5.92;;;5.42;;
19645;SDS011;9971;52.446;13.452;2023-07-29T00:55:23;5.97;;;5.47;;
19645;SDS011;9971;52.446;13.452;2023-07-29T01:00:25;5.57;;;5.17;;
19645;SDS011;9971;52.446;13.452;2023-07-29T01:05:28;5.87;;;5.37;;
19645;SDS011;9971;52.446;13.452;2023-07-29T01:10:40;5.37;;;4.97;;
19645;SDS011;9971;52.446;13.452;2023-07-29T01:15:58;5.33;;;4.90;;
19645;SDS011;9971;52.446;13.452;2023-07-29T01:21:03;5.58;;;5.17;;
19645;SDS011;9971;52.446;13.452;2023-07-29T01:26:04;5.30;;;4.90;;
19645;SDS011;9971;52.446;13.452;2023-07-29T01:31:10;5.80;;;5.30;;
19645;SDS011;9971;52.446;13.452;2023-07-29T01:36:25;5.63;;;5.13;;
19645;SDS011;9971;52.446;13.452;2023-07-29T01:41:25;4.83;;;4.53;;
19645;SDS011;9971;52.446;13.452;2023-07-29T01:46:27;5.53;;;5.13;;
19645;SDS011;9971;52.446;13.452;2023-07-29T01:51:30;5.30;;;4.90;;
19645;SDS011;9971;52.446;13.452;2023-07-29T01:56:32;5.23;;;4.73;;
19645;SDS011;9971;52.446;13.452;2023-07-29T02:01:34;5.62;;;5.20;;
19645;SDS011;9971;52.446;13.452;2023-07-29T02:06:37;6.10;;;5.60;;
19645;SDS011;9971;52.446;13.452;2023-07-29T02:11:42;5.00;;;4.60;;
19645;SDS011;9971;52.446;13.452;2023-07-29T02:16:44;5.07;;;4.73;;
19645;SDS011;9971;52.446;13.452;2023-07-29T02:21:47;5.67;;;4.67;;
19645;SDS011;9971;52.446;13.452;2023-07-29T02:26:50;5.78;;;5.28;;
19645;SDS011;9971;52.446;13.452;2023-07-29T02:31:53;5.92;;;5.42;;
19645;SDS011;9971;52.446;13.452;2023-07-29T02:36:55;5.12;;;4.72;;
19645;SDS011;9971;52.446;13.452;2023-07-29T02:41:57;5.30;;;4.83;;
19645;SDS011;9971;52.446;13.452;2023-07-29T02:47:00;5.08;;;4.75;;
19645;SDS011;9971;52.446;13.452;2023-07-29T02:52:02;5.17;;;4.85;;
19645;SDS011;9971;52.446;13.452;2023-07-29T02:57:06;5.55;;;5.05;;
19645;SDS011;9971;52.446;13.452;2023-07-29T03:02:08;5.37;;;4.97;;
19645;SDS011;9971;52.446;13.452;2023-07-29T03:07:11;5.20;;;4.80;;
19645;SDS011;9971;52.446;13.452;2023-07-29T03:12:13;5.65;;;5.15;;
19645;SDS011;9971;52.446;13.452;2023-07-29T03:17:15;5.25;;;4.85;;
19645;SDS011;9971;52.446;13.452;2023-07-29T03:22:18;5.15;;;4.75;;
19645;SDS011;9971;52.446;13.452;2023-07-29T03:27:20;5.05;;;4.55;;
19645;SDS011;9971;52.446;13.452;2023-07-29T03:32:23;5.28;;;4.78;;
19645;SDS011;9971;52.446;13.452;2023-07-29T03:37:25;5.22;;;4.83;;
19645;SDS011;9971;52.446;13.452;2023-07-29T03:42:28;5.05;;;4.75;;
19645;SDS011;9971;52.446;13.452;2023-07-29T03:47:30;6.00;;;5.47;;
19645;SDS011;9971;52.446;13.452;2023-07-29T03:52:33;5.50;;;5.00;;
19645;SDS011;9971;52.446;13.452;2023-07-29T03:57:35;5.83;;;5.28;;
19645;SDS011;9971;52.446;13.452;2023-07-29T04:02:38;6.67;;;6.08;;
19645;SDS011;9971;52.446;13.452;2023-07-29T04:07:40;5.47;;;5.07;;
19645;SDS011;9971;52.446;13.452;2023-07-29T04:12:43;6.25;;;5.75;;
19645;SDS011;9971;52.446;13.452;2023-07-29T04:17:44;6.63;;;6.13;;
19645;SDS011;9971;52.446;13.452;2023-07-29T04:22:46;6.00;;;5.40;;
19645;SDS011;9971;52.446;13.452;2023-07-29T04:27:49;5.70;;;5.30;;
19645;SDS011;9971;52.446;13.452;2023-07-29T04:32:51;6.10;;;5.20;;
19645;SDS011;9971;52.446;13.452;2023-07-29T04:37:54;5.80;;;5.40;;
19645;SDS011;9971;52.446;13.452;2023-07-29T04:42:56;5.20;;;4.70;;
19645;SDS011;9971;52.446;13.452;2023-07-29T04:47:59;5.72;;;5.33;;
19645;SDS011;9971;52.446;13.452;2023-07-29T04:53:01;6.78;;;6.25;;
19645;SDS011;9971;52.446;13.452;2023-07-29T04:58:04;5.53;;;5.17;;
19645;SDS011;9971;52.446;13.452;2023-07-29T05:03:06;5.67;;;5.27;;
19645;SDS011;9971;52.446;13.452;2023-07-29T05:08:08;5.55;;;5.15;;
19645;SDS011;9971;52.446;13.452;2023-07-29T05:13:11;6.03;;;5.62;;
19645;SDS011;9971;52.446;13.452;2023-07-29T05:18:13;6.08;;;5.67;;
19645;SDS011;9971;52.446;13.452;2023-07-29T05:23:16;6.12;;;5.60;;
19645;SDS011;9971;52.446;13.452;2023-07-29T05:28:18;5.65;;;5.25;;
19645;SDS011;9971;52.446;13.452;2023-07-29T05:33:21;5.75;;;5.17;;
19645;SDS011;9971;52.446;13.452;2023-07-29T05:38:23;5.90;;;5.40;;
19645;SDS011;9971;52.446;13.452;2023-07-29T05:43:26;5.97;;;5.47;;
19645;SDS011;9971;52.446;13.452;2023-07-29T05:48:28;6.50;;;5.07;;
19645;SDS011;9971;52.446;13.452;2023-07-29T05:53:30;5.53;;;5.10;;
19645;SDS011;9971;52.446;13.452;2023-07-29T05:58:32;5.80;;;4.95;;
19645;SDS011;9971;52.446;13.452;2023-07-29T06:03:35;5.28;;;4.87;;
19645;SDS011;9971;52.446;13.452;2023-07-29T06:08:37;4.20;;;3.90;;
19645;SDS011;9971;52.446;13.452;2023-07-29T06:13:39;4.47;;;4.05;;
19645;SDS011;9971;52.446;13.452;2023-07-29T06:18:43;4.10;;;3.80;;
19645;SDS011;9971;52.446;13.452;2023-07-29T06:23:49;3.70;;;3.47;;
19645;SDS011;9971;52.446;13.452;2023-07-29T06:28:53;3.73;;;3.43;;
19645;SDS011;9971;52.446;13.452;2023-07-29T06:33:56;3.30;;;3.10;;
19645;SDS011;9971;52.446;13.452;2023-07-29T06:39:00;3.67;;;3.37;;
19645;SDS011;9971;52.446;13.452;2023-07-29T06:44:02;2.72;;;2.52;;
19645;SDS011;9971;52.446;13.452;2023-07-29T06:49:05;4.45;;;2.67;;
19645;SDS011;9971;52.446;13.452;2023-07-29T06:54:07;2.97;;;2.70;;
19645;SDS011;9971;52.446;13.452;2023-07-29T06:59:10;2.87;;;2.67;;
19645;SDS011;9971;52.446;13.452;2023-07-29T07:04:15;3.57;;;3.07;;
19645;SDS011;9971;52.446;13.452;2023-07-29T07:09:19;3.47;;;2.80;;
19645;SDS011;9971;52.446;13.452;2023-07-29T07:14:21;2.95;;;2.75;;
19645;SDS011;9971;52.446;13.452;2023-07-29T07:19:24;2.90;;;2.70;;
19645;SDS011;9971;52.446;13.452;2023-07-29T07:24:27;3.42;;;3.20;;
19645;SDS011;9971;52.446;13.452;2023-07-29T07:29:33;3.03;;;2.73;;
19645;SDS011;9971;52.446;13.452;2023-07-29T07:34:37;3.25;;;2.70;;
19645;SDS011;9971;52.446;13.452;2023-07-29T07:39:42;3.13;;;2.43;;
19645;SDS011;9971;52.446;13.452;2023-07-29T07:44:46;2.87;;;2.67;;
19645;SDS011;9971;52.446;13.452;2023-07-29T07:49:48;2.58;;;2.40;;
19645;SDS011;9971;52.446;13.452;2023-07-29T07:54:52;2.60;;;2.40;;
19645;SDS011;9971;52.446;13.452;2023-07-29T07:59:56;3.00;;;2.80;;
19645;SDS011;9971;52.446;13.452;2023-07-29T08:21:08;2.20;;;2.10;;
19645;SDS011;9971;52.446;13.452;2023-07-29T08:26:17;2.40;;;2.27;;
19645;SDS011;9971;52.446;13.452;2023-07-29T08:31:31;3.80;;;2.20;;
19645;SDS011;9971;52.446;13.452;2023-07-29T08:52:57;2.40;;;2.20;;
19645;SDS011;9971;52.446;13.452;2023-07-29T08:57:59;2.00;;;1.90;;
19645;SDS011;9971;52.446;13.452;2023-07-29T09:03:02;1.92;;;1.82;;
19645;SDS011;9971;52.446;13.452;2023-07-29T09:08:05;2.20;;;1.90;;
19645;SDS011;9971;52.446;13.452;2023-07-29T09:13:08;2.57;;;1.87;;
19645;SDS011;9971;52.446;13.452;2023-07-29T09:23:20;2.97;;;1.90;;
19645;SDS011;9971;52.446;13.452;2023-07-29T09:28:22;1.82;;;1.72;;
19645;SDS011;9971;52.446;13.452;2023-07-29T09:33:26;1.85;;;1.75;;
19645;SDS011;9971;52.446;13.452;2023-07-29T09:38:28;2.17;;;1.85;;
19645;SDS011;9971;52.446;13.452;2023-07-29T09:43:32;2.12;;;1.62;;
19645;SDS011;9971;52.446;13.452;2023-07-29T09:48:34;2.05;;;1.95;;
19645;SDS011;9971;52.446;13.452;2023-07-29T09:53:41;1.90;;;1.80;;
19645;SDS011;9971;52.446;13.452;2023-07-29T09:58:43;1.35;;;1.32;;
19645;SDS011;9971;52.446;13.452;2023-07-29T10:03:45;1.70;;;1.57;;
19645;SDS011;9971;52.446;13.452;2023-07-29T10:08:47;1.93;;;1.77;;
19645;SDS011;9971;52.446;13.452;2023-07-29T10:13:50;1.33;;;1.23;;
19645;SDS011;9971;52.446;13.452;2023-07-29T10:18:52;1.47;;;1.40;;
19645;SDS011;9971;52.446;13.452;2023-07-29T10:23:55;1.35;;;1.27;;
19645;SDS011;9971;52.446;13.452;2023-07-29T10:28:57;2.02;;;1.27;;
19645;SDS011;9971;52.446;13.452;2023-07-29T10:33:59;1.30;;;1.30;;
19645;SDS011;9971;52.446;13.452;2023-07-29T10:39:01;1.90;;;1.30;;
19645;SDS011;9971;52.446;13.452;2023-07-29T10:44:04;1.40;;;1.30;;
19645;SDS011;9971;52.446;13.452;2023-07-29T10:49:06;1.70;;;1.15;;
19645;SDS011;9971;52.446;13.452;2023-07-29T10:54:10;1.20;;;1.10;;
19645;SDS011;9971;52.446;13.452;2023-07-29T11:04:37;1.30;;;1.20;;
19645;SDS011;9971;52.446;13.452;2023-07-29T11:09:54;1.20;;;1.20;;
19645;SDS011;9971;52.446;13.452;2023-07-29T11:14:55;1.40;;;1.30;;
19645;SDS011;9971;52.446;13.452;2023-07-29T11:20:00;3.23;;;2.10;;
19645;SDS011;9971;52.446;13.452;2023-07-29T11:25:04;4.40;;;2.03;;
19645;SDS011;9971;52.446;13.452;2023-07-29T11:30:10;3.90;;;2.37;;
19645;SDS011;9971;52.446;13.452;2023-07-29T11:35:16;1.42;;;1.02;;
19645;SDS011;9971;52.446;13.452;2023-07-29T11:40:21;2.10;;;1.37;;
19645;SDS011;9971;52.446;13.452;2023-07-29T11:45:23;2.52;;;1.87;;
19645;SDS011;9971;52.446;13.452;2023-07-29T11:50:26;2.87;;;1.63;;
19645;SDS011;9971;52.446;13.452;2023-07-29T11:55:28;2.00;;;1.90;;
19645;SDS011;9971;52.446;13.452;2023-07-29T12:00:31;2.10;;;1.90;;
19645;SDS011;9971;52.446;13.452;2023-07-29T12:05:34;2.15;;;1.85;;
19645;SDS011;9971;52.446;13.452;2023-07-29T12:10:36;1.90;;;1.75;;
19645;SDS011;9971;52.446;13.452;2023-07-29T12:15:39;2.10;;;2.00;;
19645;SDS011;9971;52.446;13.452;2023-07-29T12:20:41;2.52;;;2.00;;
19645;SDS011;9971;52.446;13.452;2023-07-29T12:25:44;2.23;;;2.03;;
19645;SDS011;9971;52.446;13.452;2023-07-29T12:30:47;3.27;;;2.00;;
19645;SDS011;9971;52.446;13.452;2023-07-29T12:35:53;1.87;;;1.77;;
19645;SDS011;9971;52.446;13.452;2023-07-29T12:40:55;2.27;;;2.12;;
19645;SDS011;9971;52.446;13.452;2023-07-29T12:45:57;2.37;;;2.27;;
19645;SDS011;9971;52.446;13.452;2023-07-29T12:50:59;1.98;;;1.87;;
19645;SDS011;9971;52.446;13.452;2023-07-29T12:56:02;2.17;;;1.95;;
19645;SDS011;9971;52.446;13.452;2023-07-29T13:01:04;2.40;;;2.20;;
19645;SDS011;9971;52.446;13.452;2023-07-29T13:06:07;2.12;;;1.92;;
19645;SDS011;9971;52.446;13.452;2023-07-29T13:11:10;2.55;;;2.35;;
19645;SDS011;9971;52.446;13.452;2023-07-29T13:16:13;2.43;;;1.87;;
19645;SDS011;9971;52.446;13.452;2023-07-29T13:21:16;2.40;;;1.70;;
19645;SDS011;9971;52.446;13.452;2023-07-29T13:26:18;2.10;;;1.92;;
19645;SDS011;9971;52.446;13.452;2023-07-29T13:31:21;2.15;;;2.05;;
19645;SDS011;9971;52.446;13.452;2023-07-29T13:36:23;1.90;;;1.80;;
19645;SDS011;9971;52.446;13.452;2023-07-29T13:41:26;1.60;;;1.50;;
19645;SDS011;9971;52.446;13.452;2023-07-29T13:46:28;1.72;;;1.62;;
19645;SDS011;9971;52.446;13.452;2023-07-29T13:51:31;1.32;;;1.22;;
19645;SDS011;9971;52.446;13.452;2023-07-29T13:56:34;1.50;;;1.40;;
19645;SDS011;9971;52.446;13.452;2023-07-29T14:01:36;2.58;;;1.30;;
19645;SDS011;9971;52.446;13.452;2023-07-29T14:06:39;1.22;;;1.12;;
19645;SDS011;9971;52.446;13.452;2023-07-29T14:11:42;1.57;;;1.27;;
19645;SDS011;9971;52.446;13.452;2023-07-29T14:16:44;1.20;;;1.10;;
19645;SDS011;9971;52.446;13.452;2023-07-29T14:21:47;1.77;;;1.03;;
19645;SDS011;9971;52.446;13.452;2023-07-29T14:26:49;1.37;;;1.27;;
19645;SDS011;9971;52.446;13.452;2023-07-29T14:31:51;1.10;;;1.10;;
19645;SDS011;9971;52.446;13.452;2023-07-29T14:36:54;2.40;;;1.20;;
19645;SDS011;9971;52.446;13.452;2023-07-29T14:41:57;1.27;;;1.13;;
19645;SDS011;9971;52.446;13.452;2023-07-29T14:47:01;1.07;;;1.07;;
19645;SDS011;9971;52.446;13.452;2023-07-29T14:52:04;2.42;;;1.00;;
19645;SDS011;9971;52.446;13.452;2023-07-29T14:57:07;1.27;;;1.17;;
19645;SDS011;9971;52.446;13.452;2023-07-29T15:02:09;1.30;;;1.20;;
19645;SDS011;9971;52.446;13.452;2023-07-29T15:07:12;0.93;;;0.93;;
19645;SDS011;9971;52.446;13.452;2023-07-29T15:12:16;1.50;;;1.20;;
19645;SDS011;9971;52.446;13.452;2023-07-29T15:17:18;1.35;;;1.30;;
19645;SDS011;9971;52.446;13.452;2023-07-29T15:22:21;1.15;;;1.05;;
19645;SDS011;9971;52.446;13.452;2023-07-29T15:27:24;1.05;;;1.00;;
19645;SDS011;9971;52.446;13.452;2023-07-29T15:32:27;1.37;;;1.27;;
19645;SDS011;9971;52.446;13.452;2023-07-29T15:37:30;3.02;;;1.30;;
19645;SDS011;9971;52.446;13.452;2023-07-29T15:42:32;1.10;;;1.10;;
19645;SDS011;9971;52.446;13.452;2023-07-29T15:47:35;1.47;;;1.20;;
19645;SDS011;9971;52.446;13.452;2023-07-29T15:52:40;0.90;;;0.90;;
19645;SDS011;9971;52.446;13.452;2023-07-29T15:57:42;1.30;;;1.20;;
19645;SDS011;9971;52.446;13.452;2023-07-29T16:02:45;1.27;;;1.17;;
19645;SDS011;9971;52.446;13.452;2023-07-29T16:07:49;1.67;;;1.57;;
19645;SDS011;9971;52.446;13.452;2023-07-29T16:12:52;1.67;;;1.57;;
19645;SDS011;9971;52.446;13.452;2023-07-29T16:17:59;1.83;;;1.73;;
19645;SDS011;9971;52.446;13.452;2023-07-29T16:23:01;1.60;;;1.50;;
19645;SDS011;9971;52.446;13.452;2023-07-29T16:28:03;1.65;;;1.55;;
19645;SDS011;9971;52.446;13.452;2023-07-29T16:33:06;1.60;;;1.50;;
19645;SDS011;9971;52.446;13.452;2023-07-29T16:38:09;1.47;;;1.37;;
19645;SDS011;9971;52.446;13.452;2023-07-29T16:43:12;2.70;;;1.20;;
19645;SDS011;9971;52.446;13.452;2023-07-29T16:48:14;2.42;;;1.60;;
19645;SDS011;9971;52.446;13.452;2023-07-29T16:53:16;1.70;;;1.60;;
19645;SDS011;9971;52.446;13.452;2023-07-29T16:58:19;2.62;;;1.70;;
19645;SDS011;9971;52.446;13.452;2023-07-29T17:03:21;2.42;;;1.90;;
19645;SDS011;9971;52.446;13.452;2023-07-29T17:08:26;2.10;;;1.90;;
19645;SDS011;9971;52.446;13.452;2023-07-29T17:13:28;1.60;;;1.40;;
19645;SDS011;9971;52.446;13.452;2023-07-29T17:18:31;2.15;;;1.92;;
19645;SDS011;9971;52.446;13.452;2023-07-29T17:23:34;4.33;;;2.37;;
19645;SDS011;9971;52.446;13.452;2023-07-29T17:28:36;1.92;;;1.82;;
19645;SDS011;9971;52.446;13.452;2023-07-29T17:33:39;1.82;;;1.72;;
19645;SDS011;9971;52.446;13.452;2023-07-29T17:38:42;2.30;;;2.15;;
19645;SDS011;9971;52.446;13.452;2023-07-29T17:43:44;1.85;;;1.75;;
19645;SDS011;9971;52.446;13.452;2023-07-29T17:48:47;2.05;;;1.50;;
19645;SDS011;9971;52.446;13.452;2023-07-29T17:53:50;1.97;;;1.70;;
19645;SDS011;9971;52.446;13.452;2023-07-29T17:58:53;1.80;;;1.70;;
19645;SDS011;9971;52.446;13.452;2023-07-29T18:03:57;2.00;;;1.90;;
19645;SDS011;9971;52.446;13.452;2023-07-29T18:09:00;1.73;;;1.63;;
19645;SDS011;9971;52.446;13.452;2023-07-29T18:14:02;1.72;;;1.62;;
19645;SDS011;9971;52.446;13.452;2023-07-29T18:19:06;1.80;;;1.70;;
19645;SDS011;9971;52.446;13.452;2023-07-29T18:24:08;1.95;;;1.80;;
19645;SDS011;9971;52.446;13.452;2023-07-29T18:29:10;1.82;;;1.60;;
19645;SDS011;9971;52.446;13.452;2023-07-29T18:34:13;2.52;;;1.87;;
19645;SDS011;9971;52.446;13.452;2023-07-29T18:39:16;1.82;;;1.70;;
19645;SDS011;9971;52.446;13.452;2023-07-29T18:44:18;2.43;;;2.00;;
19645;SDS011;9971;52.446;13.452;2023-07-29T18:49:20;2.45;;;2.20;;
19645;SDS011;9971;52.446;13.452;2023-07-29T18:54:23;2.30;;;2.15;;
19645;SDS011;9971;52.446;13.452;2023-07-29T18:59:25;2.20;;;1.98;;
19645;SDS011;9971;52.446;13.452;2023-07-29T19:04:28;2.27;;;2.07;;
19645;SDS011;9971;52.446;13.452;2023-07-29T19:09:32;3.27;;;2.17;;
19645;SDS011;9971;52.446;13.452;2023-07-29T19:14:36;2.37;;;2.17;;
19645;SDS011;9971;52.446;13.452;2023-07-29T19:19:38;2.98;;;2.02;;
19645;SDS011;9971;52.446;13.452;2023-07-29T19:24:41;2.67;;;2.47;;
19645;SDS011;9971;52.446;13.452;2023-07-29T19:29:43;3.30;;;3.00;;
19645;SDS011;9971;52.446;13.452;2023-07-29T19:34:46;3.00;;;2.67;;
19645;SDS011;9971;52.446;13.452;2023-07-29T19:39:49;4.20;;;2.37;;
19645;SDS011;9971;52.446;13.452;2023-07-29T19:44:52;3.07;;;2.57;;
19645;SDS011;9971;52.446;13.452;2023-07-29T19:49:54;2.80;;;2.60;;
19645;SDS011;9971;52.446;13.452;2023-07-29T19:54:56;4.35;;;3.60;;
19645;SDS011;9971;52.446;13.452;2023-07-29T19:59:59;13.62;;;12.75;;
19645;SDS011;9971;52.446;13.452;2023-07-29T20:05:03;2.67;;;2.47;;
19645;SDS011;9971;52.446;13.452;2023-07-29T20:10:06;3.43;;;3.13;;
19645;SDS011;9971;52.446;13.452;2023-07-29T20:15:09;2.67;;;2.58;;
19645;SDS011;9971;52.446;13.452;2023-07-29T20:20:12;2.97;;;2.77;;
19645;SDS011;9971;52.446;13.452;2023-07-29T20:25:15;2.92;;;2.62;;
19645;SDS011;9971;52.446;13.452;2023-07-29T20:30:17;2.52;;;2.42;;
19645;SDS011;9971;52.446;13.452;2023-07-29T20:35:19;3.15;;;2.85;;
19645;SDS011;9971;52.446;13.452;2023-07-29T20:40:25;2.85;;;2.62;;
19645;SDS011;9971;52.446;13.452;2023-07-29T20:45:28;2.93;;;2.73;;
19645;SDS011;9971;52.446;13.452;2023-07-29T20:50:31;2.87;;;2.67;;
19645;SDS011;9971;52.446;13.452;2023-07-29T20:55:34;4.25;;;2.62;;
19645;SDS011;9971;52.446;13.452;2023-07-29T21:00:37;2.90;;;2.70;;
19645;SDS011;9971;52.446;13.452;2023-07-29T21:05:39;3.40;;;2.60;;
19645;SDS011;9971;52.446;13.452;2023-07-29T21:10:42;3.22;;;2.95;;
19645;SDS011;9971;52.446;13.452;2023-07-29T21:15:49;3.17;;;2.80;;
19645;SDS011;9971;52.446;13.452;2023-07-29T21:20:51;3.37;;;3.00;;
19645;SDS011;9971;52.446;13.452;2023-07-29T21:25:54;3.12;;;2.92;;
19645;SDS011;9971;52.446;13.452;2023-07-29T21:30:56;4.00;;;3.45;;
19645;SDS011;9971;52.446;13.452;2023-07-29T21:35:59;3.93;;;3.60;;
19645;SDS011;9971;52.446;13.452;2023-07-29T21:41:01;3.53;;;3.30;;
19645;SDS011;9971;52.446;13.452;2023-07-29T21:46:03;3.95;;;3.65;;
19645;SDS011;9971;52.446;13.452;2023-07-29T21:51:06;3.80;;;3.50;;
19645;SDS011;9971;52.446;13.452;2023-07-29T21:56:08;3.80;;;3.50;;
19645;SDS011;9971;52.446;13.452;2023-07-29T22:01:10;4.37;;;3.98;;
19645;SDS011;9971;52.446;13.452;2023-07-29T22:06:13;4.30;;;4.00;;
19645;SDS011;9971;52.446;13.452;2023-07-29T22:11:17;4.93;;;4.07;;
19645;SDS011;9971;52.446;13.452;2023-07-29T22:16:20;4.33;;;4.00;;
19645;SDS011;9971;52.446;13.452;2023-07-29T22:21:24;4.30;;;3.90;;
19645;SDS011;9971;52.446;13.452;2023-07-29T22:26:27;4.40;;;3.57;;
19645;SDS011;9971;52.446;13.452;2023-07-29T22:31:29;4.90;;;4.17;;
19645;SDS011;9971;52.446;13.452;2023-07-29T22:36:32;3.95;;;3.65;;
19645;SDS011;9971;52.446;13.452;2023-07-29T22:41:34;4.62;;;4.22;;
19645;SDS011;9971;52.446;13.452;2023-07-29T22:46:37;4.95;;;4.30;;
19645;SDS011;9971;52.446;13.452;2023-07-29T22:51:40;4.72;;;4.15;;
19645;SDS011;9971;52.446;13.452;2023-07-29T22:56:42;4.53;;;4.12;;
19645;SDS011;9971;52.446;13.452;2023-07-29T23:01:45;4.70;;;4.30;;
19645;SDS011;9971;52.446;13.452;2023-07-29T23:06:47;4.78;;;4.37;;
19645;SDS011;9971;52.446;13.452;2023-07-29T23:11:51;5.30;;;4.77;;
19645;SDS011;9971;52.446;13.452;2023-07-29T23:16:54;4.12;;;3.83;;
19645;SDS011;9971;52.446;13.452;2023-07-29T23:21:56;4.70;;;4.25;;
19645;SDS011;9971;52.446;13.452;2023-07-29T23:26:59;4.67;;;4.22;;
19645;SDS011;9971;52.446;13.452;2023-07-29T23:32:01;3.65;;;3.37;;
19645;SDS011;9971;52.446;13.452;2023-07-29T23:37:04;4.28;;;3.87;;
19645;SDS011;9971;52.446;13.452;2023-07-29T23:42:06;4.20;;;3.90;;
19645;SDS011;9971;52.446;13.452;2023-07-29T23:47:09;3.83;;;3.52;;
19645;SDS011;9971;52.446;13.452;2023-07-29T23:52:12;3.60;;;3.30;;
19645;SDS011;9971;52.446;13.452;2023-07-29T23:57:15;3.25;;;2.98;;
